Time;durP1;ratioP1;P1;durP2;ratioP2;P2;SDS_P1;SDS_P2;PMS_P1;PMS_P2;Temp;Humidity;BMP_temperature;BMP_pressure;BME280_temperature;BME280_humidity;BME280_pressure;Samples;Min_cycle;Max_cycle;Signal;HPM_P1;HPM_P2
2023/09/11 00:01:09;;;;;;;0.00;0.00;;;;;;;19.10;100.00;100218.41;5002590;28;20037;-75
2023/09/11 00:03:35;;;;;;;0.00;0.00;;;;;;;19.06;100.00;100200.84;4980329;28;20034;-75
2023/09/11 00:06:05;;;;;;;0.00;0.00;;;;;;;19.12;100.00;100216.13;5014943;28;20685;-75
2023/09/11 00:08:30;;;;;;;0.00;0.00;;;;;;;19.12;100.00;100205.06;5002614;28;20121;-76
2023/09/11 00:10:57;;;;;;;0.00;0.00;;;;;;;19.22;100.00;100210.25;4997192;28;20120;-75
2023/09/11 00:13:25;;;;;;;0.00;0.00;;;;;;;19.13;100.00;100196.41;5010450;28;20022;-74
2023/09/11 00:15:50;;;;;;;0.00;0.00;;;;;;;19.26;100.00;100204.84;5004139;28;20026;-76
2023/09/11 00:18:16;;;;;;;0.00;0.00;;;;;;;19.28;100.00;100208.91;5001701;28;20041;-75
2023/09/11 00:20:41;;;;;;;0.00;0.00;;;;;;;19.29;100.00;100196.69;5000466;28;20034;-74
2023/09/11 00:23:09;;;;;;;0.00;0.00;;;;;;;19.29;100.00;100188.38;4979401;28;20046;-75
2023/09/11 00:25:35;;;;;;;0.00;0.00;;;;;;;19.33;100.00;100189.34;5014202;28;20034;-75
2023/09/11 00:28:00;;;;;;;0.00;0.00;;;;;;;19.34;100.00;100188.19;4990972;28;20499;-74
2023/09/11 00:30:27;;;;;;;0.00;0.00;;;;;;;19.30;100.00;100178.94;5006697;28;20041;-75
2023/09/11 00:32:52;;;;;;;0.00;0.00;;;;;;;19.43;100.00;100187.34;5005770;28;20029;-76
2023/09/11 00:35:18;;;;;;;0.00;0.00;;;;;;;19.35;100.00;100175.97;4997838;28;20033;-75
2023/09/11 00:37:45;;;;;;;0.00;0.00;;;;;;;19.34;100.00;100168.78;5005567;28;20642;-75
2023/09/11 00:40:11;;;;;;;0.00;0.00;;;;;;;19.38;100.00;100165.34;4999076;28;20037;-74
2023/09/11 00:42:36;;;;;;;0.00;0.00;;;;;;;19.35;100.00;100164.88;5017515;28;20115;-76
2023/09/11 00:45:02;;;;;;;0.00;0.00;;;;;;;19.33;100.00;100161.63;5020599;28;20021;-75
2023/09/11 00:47:28;;;;;;;0.00;0.00;;;;;;;19.29;100.00;100166.19;4987028;28;20577;-76
2023/09/11 00:49:55;;;;;;;0.00;0.00;;;;;;;19.39;100.00;100170.59;5000396;28;20117;-76
2023/09/11 00:52:21;;;;;;;0.00;0.00;;;;;;;19.40;100.00;100165.84;5015329;28;20040;-75
2023/09/11 00:54:47;;;;;;;0.00;0.00;;;;;;;19.44;100.00;100155.72;4986358;28;20122;-75
2023/09/11 00:57:17;;;;;;;0.00;0.00;;;;;;;19.44;100.00;100161.25;4998369;28;20133;-75
2023/09/11 00:59:44;;;;;;;0.00;0.00;;;;;;;19.40;100.00;100149.19;5018498;28;20037;-74
2023/09/11 01:02:11;;;;;;;0.00;0.00;;;;;;;19.50;100.00;100154.38;5000981;28;20556;-74
2023/09/11 01:04:37;;;;;;;0.00;0.00;;;;;;;19.54;100.00;100144.25;5007188;28;20391;-74
2023/09/11 01:07:02;;;;;;;0.00;0.00;;;;;;;19.53;100.00;100143.41;5019436;28;20113;-74
2023/09/11 01:09:28;;;;;;;0.00;0.00;;;;;;;19.39;100.00;100117.06;4987286;28;20417;-76
2023/09/11 01:11:53;;;;;;;0.00;0.00;;;;;;;19.46;100.00;100125.69;4999443;28;20052;-75
2023/09/11 01:14:19;;;;;;;0.00;0.00;;;;;;;19.54;100.00;100135.94;5001817;28;20463;-76
2023/09/11 01:17:29;;;;;;;0.00;0.00;;;;;;;19.52;100.00;100135.44;5013921;28;20858;-76
2023/09/11 01:20:25;;;;;;;0.00;0.00;;;;;;;19.57;100.00;100137.22;5017160;28;20377;-75
2023/09/11 01:22:56;;;;;;;0.00;0.00;;;;;;;19.50;100.00;100146.84;4997413;28;20598;-76
2023/09/11 01:25:43;;;;;;;0.00;0.00;;;;;;;19.44;100.00;100139.88;5015621;28;20087;-76
2023/09/11 01:28:26;;;;;;;0.00;0.00;;;;;;;19.44;100.00;100144.63;4999552;28;20734;-76
2023/09/11 01:30:53;;;;;;;0.00;0.00;;;;;;;19.45;100.00;100138.75;4998351;28;20113;-75
2023/09/11 01:33:19;;;;;;;0.00;0.00;;;;;;;19.43;100.00;100149.34;5014796;28;20033;-74
2023/09/11 01:35:44;;;;;;;0.00;0.00;;;;;;;19.34;100.00;100135.50;4987528;28;20029;-76
2023/09/11 01:38:09;;;;;;;0.00;0.00;;;;;;;19.28;100.00;100139.63;4989889;28;20117;-76
2023/09/11 01:40:36;;;;;;;0.00;0.00;;;;;;;19.25;100.00;100143.06;5004650;28;20056;-75
2023/09/11 01:43:05;;;;;;;0.00;0.00;;;;;;;19.27;100.00;100151.84;4989173;28;20088;-75
2023/09/11 01:45:32;;;;;;;0.00;0.00;;;;;;;19.30;100.00;100162.28;5021258;28;20068;-76
2023/09/11 01:47:59;;;;;;;0.00;0.00;;;;;;;19.30;100.00;100162.28;4984108;28;20049;-76
2023/09/11 01:50:25;;;;;;;0.00;0.00;;;;;;;19.30;100.00;100161.47;4984799;28;20049;-76
2023/09/11 01:52:51;;;;;;;0.00;0.00;;;;;;;19.29;100.00;100152.34;4982991;28;20087;-76
2023/09/11 01:55:17;;;;;;;0.00;0.00;;;;;;;19.34;100.00;100159.66;4991524;28;20045;-75
2023/09/11 01:57:43;;;;;;;0.00;0.00;;;;;;;19.32;100.00;100160.00;4998763;28;20022;-75
2023/09/11 02:00:11;;;;;;;0.00;0.00;;;;;;;19.32;100.00;100160.00;5019518;28;20036;-76
2023/09/11 02:02:37;;;;;;;0.00;0.00;;;;;;;19.16;100.00;100145.06;5000943;28;20043;-75
2023/09/11 02:05:02;;;;;;;0.00;0.00;;;;;;;19.11;100.00;100153.53;4982428;28;20022;-76
2023/09/11 02:07:28;;;;;;;0.00;0.00;;;;;;;19.00;100.00;100153.09;5004303;28;20112;-76
2023/09/11 02:09:53;;;;;;;0.00;0.00;;;;;;;18.86;100.00;100144.13;5014734;28;20032;-77
2023/09/11 02:12:19;;;;;;;0.00;0.00;;;;;;;18.71;100.00;100146.25;5014017;28;20047;-76
2023/09/11 02:14:44;;;;;;;0.00;0.00;;;;;;;18.64;100.00;100146.72;5005371;28;20033;-75
2023/09/11 02:17:09;;;;;;;0.00;0.00;;;;;;;18.57;100.00;100135.34;4976985;28;20030;-76
2023/09/11 02:19:35;;;;;;;0.00;0.00;;;;;;;18.53;100.00;100144.63;4986391;28;20073;-76
2023/09/11 02:22:01;;;;;;;0.00;0.00;;;;;;;18.38;100.00;100132.09;4994795;28;20083;-75
2023/09/11 02:24:26;;;;;;;0.00;0.00;;;;;;;18.29;100.00;100132.91;5006380;28;20033;-76
2023/09/11 02:26:53;;;;;;;0.00;0.00;;;;;;;18.26;100.00;100141.06;5005966;28;20464;-75
2023/09/11 02:29:19;;;;;;;0.00;0.00;;;;;;;18.21;100.00;100142.03;5014545;28;20448;-76
2023/09/11 02:31:44;;;;;;;0.00;0.00;;;;;;;18.25;100.00;100140.25;4971913;28;20033;-76
2023/09/11 02:34:09;;;;;;;0.00;0.00;;;;;;;18.30;100.00;100142.84;4969794;28;20119;-76
2023/09/11 02:36:35;;;;;;;0.00;0.00;;;;;;;18.28;100.00;100133.22;4979948;28;20044;-76
2023/09/11 02:39:00;;;;;;;0.00;0.00;;;;;;;18.37;100.00;100142.38;4996366;28;20033;-76
2023/09/11 02:41:26;;;;;;;0.00;0.00;;;;;;;18.34;100.00;100143.03;4992984;28;20040;-75
2023/09/11 02:43:51;;;;;;;0.00;0.00;;;;;;;18.37;100.00;100136.00;4960043;28;20134;-77
2023/09/11 02:46:16;;;;;;;0.00;0.00;;;;;;;18.49;100.00;100136.16;4988195;28;20116;-75
2023/09/11 02:48:46;;;;;;;0.00;0.00;;;;;;;18.57;100.00;100129.78;4991283;28;20042;-75
2023/09/11 02:51:12;;;;;;;0.00;0.00;;;;;;;18.60;100.00;100122.78;5014937;28;20052;-76
2023/09/11 02:53:38;;;;;;;0.00;0.00;;;;;;;18.58;100.00;100122.31;4994955;28;20809;-75
2023/09/11 02:56:04;;;;;;;0.00;0.00;;;;;;;18.56;100.00;100128.19;5001465;28;20495;-73
2023/09/11 02:58:29;;;;;;;0.00;0.00;;;;;;;18.49;100.00;100122.34;5000945;28;20485;-75
2023/09/11 03:00:55;;;;;;;0.00;0.00;;;;;;;18.44;100.00;100119.72;4989460;28;20618;-75
2023/09/11 03:03:26;;;;;;;0.00;0.00;;;;;;;18.45;100.00;100110.28;4984245;28;20034;-75
2023/09/11 03:05:59;;;;;;;0.00;0.00;;;;;;;18.57;100.00;100124.25;5003095;28;20531;-74
2023/09/11 03:08:24;;;;;;;0.00;0.00;;;;;;;18.59;100.00;100127.53;5011362;28;20026;-76
2023/09/11 03:10:50;;;;;;;0.00;0.00;;;;;;;18.56;100.00;100130.97;4994043;28;20475;-76
2023/09/11 03:13:16;;;;;;;0.00;0.00;;;;;;;18.52;100.00;100118.09;4993728;28;20066;-75
2023/09/11 03:15:44;;;;;;;0.00;0.00;;;;;;;18.54;100.00;100119.38;5026526;28;20033;-75
2023/09/11 03:18:09;;;;;;;0.00;0.00;;;;;;;18.63;100.00;100124.91;4977432;28;20037;-75
2023/09/11 03:20:35;;;;;;;0.00;0.00;;;;;;;18.65;100.00;100109.59;5010063;28;20484;-75
2023/09/11 03:23:02;;;;;;;0.00;0.00;;;;;;;18.70;100.00;100103.06;5003008;28;20042;-75
2023/09/11 03:25:35;;;;;;;0.00;0.00;;;;;;;18.71;100.00;100103.91;5004906;28;20615;-74
2023/09/11 03:28:01;;;;;;;0.00;0.00;;;;;;;18.75;100.00;100104.84;5014649;28;20109;-75
2023/09/11 03:30:27;;;;;;;0.00;0.00;;;;;;;18.80;100.00;100111.03;5017378;28;20036;-75
2023/09/11 03:32:52;;;;;;;0.00;0.00;;;;;;;18.73;100.00;100107.94;5023955;28;20132;-75
2023/09/11 03:35:18;;;;;;;0.00;0.00;;;;;;;18.72;100.00;100113.81;4990921;28;20476;-75
2023/09/11 03:37:43;;;;;;;0.00;0.00;;;;;;;18.74;100.00;100122.63;5009099;28;20041;-75
2023/09/11 03:40:13;;;;;;;0.00;0.00;;;;;;;18.73;100.00;100129.31;5019042;28;20113;-75
2023/09/11 03:42:38;;;;;;;0.00;0.00;;;;;;;18.62;100.00;100118.56;5009960;28;20045;-74
2023/09/11 03:45:05;;;;;;;0.00;0.00;;;;;;;18.66;100.00;100130.63;5022910;28;20018;-75
2023/09/11 03:47:30;;;;;;;0.00;0.00;;;;;;;18.49;99.69;100100.19;4991251;28;20596;-74
2023/09/11 03:49:56;;;;;;;0.00;0.00;;;;;;;18.54;99.53;100108.31;4997695;28;20037;-75
2023/09/11 03:52:23;;;;;;;0.00;0.00;;;;;;;18.56;99.18;100111.56;4991160;28;20448;-75
2023/09/11 03:54:49;;;;;;;0.00;0.00;;;;;;;18.61;98.84;100135.50;5004425;28;20103;-75
2023/09/11 03:57:17;;;;;;;0.00;0.00;;;;;;;18.44;98.65;100119.72;5023589;28;20064;-75
2023/09/11 03:59:43;;;;;;;0.00;0.00;;;;;;;18.46;98.87;100120.22;5004870;28;20018;-75
2023/09/11 04:02:08;;;;;;;0.00;0.00;;;;;;;18.56;98.35;100142.03;5015231;28;20030;-76
2023/09/11 04:04:33;;;;;;;0.00;0.00;;;;;;;18.49;97.67;100142.50;4976560;28;20030;-76
2023/09/11 04:06:59;;;;;;;0.00;0.00;;;;;;;18.44;97.15;100137.16;4996908;28;20034;-76
2023/09/11 04:09:25;;;;;;;0.00;0.00;;;;;;;18.52;96.86;100148.56;4976630;28;20033;-75
2023/09/11 04:11:50;;;;;;;0.00;0.00;;;;;;;18.43;96.63;100134.72;5008028;28;20041;-75
2023/09/11 04:14:15;;;;;;;0.00;0.00;;;;;;;18.45;96.88;100146.28;4998495;28;20057;-74
2023/09/11 04:16:44;;;;;;;0.00;0.00;;;;;;;18.40;96.42;100138.09;4988799;28;20029;-75
2023/09/11 04:19:09;;;;;;;0.00;0.00;;;;;;;18.47;96.03;100146.75;5010605;28;20037;-75
2023/09/11 04:21:34;;;;;;;0.00;0.00;;;;;;;18.42;95.57;100155.22;5017167;28;20037;-75
2023/09/11 04:24:00;;;;;;;0.00;0.00;;;;;;;18.35;95.59;100149.34;5022113;28;20676;-75
2023/09/11 04:26:25;;;;;;;0.00;0.00;;;;;;;18.33;95.79;100151.66;4995719;28;20064;-74
2023/09/11 04:28:50;;;;;;;0.00;0.00;;;;;;;18.22;95.85;100138.09;4991200;28;20040;-75
2023/09/11 04:31:16;;;;;;;0.00;0.00;;;;;;;18.28;95.13;100141.53;4989005;28;20041;-75
2023/09/11 04:33:41;;;;;;;0.00;0.00;;;;;;;18.30;95.15;100151.16;5003213;28;20048;-74
2023/09/11 04:36:07;;;;;;;0.00;0.00;;;;;;;18.29;94.56;100141.19;4981713;28;20468;-75
2023/09/11 04:38:32;;;;;;;0.00;0.00;;;;;;;18.31;94.38;100144.47;5010883;28;20369;-76
2023/09/11 04:40:58;;;;;;;0.00;0.00;;;;;;;18.16;94.09;100120.03;5003227;28;20030;-75
2023/09/11 04:43:26;;;;;;;0.00;0.00;;;;;;;18.12;94.17;100119.88;5007810;28;20041;-76
2023/09/11 04:45:52;;;;;;;0.00;0.00;;;;;;;18.05;93.94;100127.06;4993219;28;20107;-75
2023/09/11 04:48:20;;;;;;;0.00;0.00;;;;;;;17.91;94.01;100114.16;4987445;28;20056;-76
2023/09/11 04:50:45;;;;;;;0.00;0.00;;;;;;;18.02;93.92;100131.28;5000648;28;20045;-75
2023/09/11 04:53:11;;;;;;;0.00;0.00;;;;;;;18.01;93.91;100128.84;5016121;28;20141;-75
2023/09/11 04:55:39;;;;;;;0.00;0.00;;;;;;;18.19;93.15;100152.59;5012769;28;20044;-76
2023/09/11 04:58:25;;;;;;;0.00;0.00;;;;;;;18.01;93.38;100118.56;4986089;28;20160;-75
2023/09/11 05:00:54;;;;;;;0.00;0.00;;;;;;;18.05;93.50;100118.75;5006730;28;20415;-75
2023/09/11 05:03:22;;;;;;;0.00;0.00;;;;;;;18.20;93.40;100147.91;5015304;28;20033;-74
2023/09/11 05:05:52;;;;;;;0.00;0.00;;;;;;;18.04;92.78;100122.66;5010057;28;20368;-75
2023/09/11 05:08:18;;;;;;;0.00;0.00;;;;;;;18.01;92.64;100128.84;5004788;28;20361;-75
2023/09/11 05:10:44;;;;;;;0.00;0.00;;;;;;;18.15;93.25;100146.09;5001773;28;20029;-74
2023/09/11 05:13:13;;;;;;;0.00;0.00;;;;;;;18.05;92.77;100135.34;4976616;28;20021;-74
2023/09/11 05:15:39;;;;;;;0.00;0.00;;;;;;;18.08;92.37;100129.97;4992523;28;20036;-74
2023/09/11 05:18:05;;;;;;;0.00;0.00;;;;;;;18.07;92.27;100127.53;4989578;28;20369;-75
2023/09/11 05:20:33;;;;;;;0.00;0.00;;;;;;;18.08;92.65;100115.34;5019204;28;20026;-76
2023/09/11 05:23:00;;;;;;;0.00;0.00;;;;;;;18.02;92.53;100105.53;5005723;28;20041;-75
2023/09/11 05:25:26;;;;;;;0.00;0.00;;;;;;;18.10;92.16;100126.88;5014104;28;20051;-76
2023/09/11 05:27:51;;;;;;;0.00;0.00;;;;;;;18.31;92.14;100155.56;4999251;28;20470;-75
2023/09/11 05:30:16;;;;;;;0.00;0.00;;;;;;;18.29;91.58;100146.75;4986972;28;20036;-75
2023/09/11 05:32:42;;;;;;;0.00;0.00;;;;;;;18.39;91.10;100155.88;4970202;28;20049;-75
2023/09/11 05:35:08;;;;;;;0.00;0.00;;;;;;;18.41;90.77;100159.13;4989032;28;20049;-74
2023/09/11 05:37:33;;;;;;;0.00;0.00;;;;;;;18.43;91.40;100167.94;4994121;28;20036;-76
2023/09/11 05:40:00;;;;;;;0.00;0.00;;;;;;;18.41;90.76;100171.03;4985972;28;20125;-76
2023/09/11 05:42:26;;;;;;;0.00;0.00;;;;;;;18.38;90.40;100162.53;4985209;28;20414;-77
2023/09/11 05:44:54;;;;;;;0.00;0.00;;;;;;;18.38;90.43;100165.31;4979914;28;20025;-76
2023/09/11 05:47:19;;;;;;;0.00;0.00;;;;;;;18.29;89.90;100157.00;5001123;28;20022;-76
2023/09/11 05:49:45;;;;;;;0.00;0.00;;;;;;;18.45;89.87;100166.44;5008323;28;20041;-75
2023/09/11 05:52:13;;;;;;;0.00;0.00;;;;;;;18.46;89.50;100156.22;5012203;28;20064;-76
2023/09/11 05:54:41;;;;;;;0.00;0.00;;;;;;;18.55;88.47;100170.84;5013029;28;21526;-76
2023/09/11 05:57:06;;;;;;;0.00;0.00;;;;;;;18.53;88.14;100162.06;5002090;28;20030;-74
2023/09/11 05:59:32;;;;;;;0.00;0.00;;;;;;;18.51;88.65;100158.00;4998074;28;20037;-75
2023/09/11 06:01:57;;;;;;;0.00;0.00;;;;;;;18.55;88.28;100158.97;4990779;28;20029;-75
2023/09/11 06:04:23;;;;;;;0.00;0.00;;;;;;;18.59;88.07;100168.25;5011884;28;20033;-75
2023/09/11 06:06:48;;;;;;;0.00;0.00;;;;;;;18.59;87.37;100160.75;4988700;28;20029;-75
2023/09/11 06:09:13;;;;;;;0.00;0.00;;;;;;;18.60;87.26;100153.25;4999561;28;20044;-76
2023/09/11 06:11:39;;;;;;;0.00;0.00;;;;;;;18.64;86.96;100152.28;4992920;28;21026;-76
2023/09/11 06:14:06;;;;;;;0.00;0.00;;;;;;;18.74;86.33;100166.94;4978316;28;20532;-75
2023/09/11 06:16:31;;;;;;;0.00;0.00;;;;;;;18.69;86.60;100153.25;5004804;28;20065;-76
2023/09/11 06:19:01;;;;;;;0.00;0.00;;;;;;;18.71;86.50;100162.88;5018545;28;20120;-74
2023/09/11 06:21:27;;;;;;;0.00;0.00;;;;;;;18.70;86.37;100154.88;5001084;28;20384;-75
2023/09/11 06:23:52;;;;;;;0.00;0.00;;;;;;;18.77;85.81;100171.81;4982110;28;20037;-75
2023/09/11 06:26:21;;;;;;;0.00;0.00;;;;;;;18.77;85.72;100167.09;4966208;28;20400;-75
2023/09/11 06:28:46;;;;;;;0.00;0.00;;;;;;;18.89;85.52;100185.03;5003921;28;20048;-76
2023/09/11 06:31:12;;;;;;;0.00;0.00;;;;;;;18.89;85.54;100174.75;4998562;28;20041;-74
2023/09/11 06:33:37;;;;;;;0.00;0.00;;;;;;;19.01;85.16;100174.91;5003690;28;20032;-75
2023/09/11 06:36:05;;;;;;;0.00;0.00;;;;;;;18.98;85.13;100167.25;4978172;28;20132;-76
2023/09/11 06:38:30;;;;;;;0.00;0.00;;;;;;;19.07;84.69;100163.66;4985564;28;20169;-74
2023/09/11 06:40:56;;;;;;;0.00;0.00;;;;;;;19.09;84.56;100158.59;4974765;28;20091;-75
2023/09/11 06:43:26;;;;;;;0.00;0.00;;;;;;;19.19;84.27;100172.09;4964249;28;20037;-76
2023/09/11 06:45:52;;;;;;;0.00;0.00;;;;;;;19.23;84.12;100172.25;5014435;28;20021;-76
2023/09/11 06:48:21;;;;;;;0.00;0.00;;;;;;;19.13;83.80;100157.59;5016767;28;20032;-76
2023/09/11 06:50:46;;;;;;;0.00;0.00;;;;;;;19.22;83.61;100171.44;4978920;28;20067;-75
2023/09/11 06:53:13;;;;;;;0.00;0.00;;;;;;;19.23;83.64;100175.84;5021883;28;20025;-77
2023/09/11 06:55:48;;;;;;;0.00;0.00;;;;;;;19.05;83.13;100150.13;5005731;28;20021;-77
2023/09/11 06:58:19;;;;;;;0.00;0.00;;;;;;;18.93;83.54;100156.34;5001724;28;20029;-76
2023/09/11 07:00:46;;;;;;;0.00;0.00;;;;;;;18.76;84.30;100156.34;4994468;28;20036;-78
2023/09/11 07:03:12;;;;;;;0.00;0.00;;;;;;;18.89;84.66;100185.84;5008513;28;20022;-77
2023/09/11 07:05:40;;;;;;;0.00;0.00;;;;;;;18.85;84.48;100162.66;5020451;28;20025;-76
2023/09/11 07:08:06;;;;;;;0.00;0.00;;;;;;;19.08;84.07;100179.94;5000495;28;20603;-76
2023/09/11 07:10:38;;;;;;;0.00;0.00;;;;;;;19.17;83.59;100163.28;4990388;28;20038;-75
2023/09/11 07:13:06;;;;;;;0.00;0.00;;;;;;;19.52;82.70;100150.13;4993230;28;20025;-76
2023/09/11 07:15:32;;;;;;;0.00;0.00;;;;;;;20.09;81.46;100164.69;4992540;28;20064;-76
2023/09/11 07:18:00;;;;;;;0.00;0.00;;;;;;;20.58;79.11;100169.72;4993624;28;20121;-76
2023/09/11 07:20:28;;;;;;;0.00;0.00;;;;;;;20.70;78.12;100150.34;5006522;28;20449;-76
2023/09/11 07:22:57;;;;;;;0.00;0.00;;;;;;;20.65;77.22;100153.31;4987299;28;20547;-76
2023/09/11 07:25:23;;;;;;;0.00;0.00;;;;;;;20.73;77.48;100160.78;5001716;28;20460;-76
2023/09/11 07:27:49;;;;;;;0.00;0.00;;;;;;;20.79;77.75;100143.91;4982205;28;20019;-76
2023/09/11 07:30:14;;;;;;;0.00;0.00;;;;;;;20.88;77.18;100145.44;4984891;28;20026;-76
2023/09/11 07:32:50;;;;;;;0.00;0.00;;;;;;;21.15;76.56;100159.88;5002365;28;20084;-76
2023/09/11 07:35:16;;;;;;;0.00;0.00;;;;;;;21.27;75.33;100151.56;5002263;28;20534;-75
2023/09/11 07:37:41;;;;;;;0.00;0.00;;;;;;;21.60;73.68;100174.91;4970736;28;20034;-76
2023/09/11 07:40:07;;;;;;;0.00;0.00;;;;;;;21.53;72.25;100152.41;4997647;28;20030;-76
2023/09/11 07:42:40;;;;;;;0.00;0.00;;;;;;;21.60;71.87;100158.22;5004442;28;20029;-75
2023/09/11 07:45:06;;;;;;;0.00;0.00;;;;;;;21.79;71.66;100161.22;4984330;28;20432;-76
2023/09/11 07:47:32;;;;;;;0.00;0.00;;;;;;;22.02;70.21;100152.41;4995625;28;20053;-78
2023/09/11 07:50:01;;;;;;;0.00;0.00;;;;;;;22.72;69.30;100189.50;4980539;28;20056;-74
2023/09/11 07:52:29;;;;;;;0.00;0.00;;;;;;;23.21;66.71;100171.75;4982232;28;20026;-76
2023/09/11 07:54:54;;;;;;;0.00;0.00;;;;;;;23.16;64.58;100176.41;4987471;28;20034;-75
2023/09/11 07:57:27;;;;;;;0.00;0.00;;;;;;;23.14;64.74;100194.66;4986124;28;20473;-74
2023/09/11 07:59:55;;;;;;;0.00;0.00;;;;;;;22.88;64.91;100186.75;4997731;28;20042;-72
2023/09/11 08:02:22;;;;;;;0.00;0.00;;;;;;;22.77;66.78;100203.97;4996444;28;20045;-73
2023/09/11 08:04:48;;;;;;;0.00;0.00;;;;;;;22.63;67.39;100200.78;5014489;28;20469;-72
2023/09/11 08:07:13;;;;;;;0.00;0.00;;;;;;;22.51;67.86;100195.25;5005880;28;20018;-72
2023/09/11 08:09:46;;;;;;;0.00;0.00;;;;;;;22.27;67.58;100191.34;5001951;28;20036;-72
2023/09/11 08:12:11;;;;;;;0.00;0.00;;;;;;;22.31;68.80;100203.38;4996962;28;20471;-74
2023/09/11 08:14:46;;;;;;;0.00;0.00;;;;;;;22.25;67.54;100196.44;4999008;28;20774;-71
2023/09/11 08:17:12;;;;;;;0.00;0.00;;;;;;;22.58;68.18;100212.19;4987261;28;20132;-72
2023/09/11 08:19:40;;;;;;;0.00;0.00;;;;;;;23.18;65.66;100218.69;5000596;28;20037;-72
2023/09/11 08:22:05;;;;;;;0.00;0.00;;;;;;;23.48;64.80;100226.66;4993485;28;20758;-74
2023/09/11 08:24:31;;;;;;;0.00;0.00;;;;;;;23.60;63.34;100222.19;5016856;28;20136;-73
2023/09/11 08:26:57;;;;;;;0.00;0.00;;;;;;;23.61;63.71;100221.81;5006819;28;20034;-74
2023/09/11 08:29:22;;;;;;;0.00;0.00;;;;;;;23.99;62.37;100222.34;4993858;28;20045;-73
2023/09/11 08:31:48;;;;;;;0.00;0.00;;;;;;;24.25;61.65;100229.34;4994340;28;20574;-74
2023/09/11 08:34:14;;;;;;;0.00;0.00;;;;;;;24.77;60.69;100228.13;5013997;28;20034;-73
2023/09/11 08:36:39;;;;;;;0.00;0.00;;;;;;;25.47;58.21;100231.91;5001432;28;20046;-74
2023/09/11 08:39:05;;;;;;;0.00;0.00;;;;;;;26.11;56.16;100237.00;5003715;28;20786;-73
2023/09/11 08:41:31;;;;;;;0.00;0.00;;;;;;;26.71;55.36;100224.22;4985634;28;20112;-73
2023/09/11 08:43:57;;;;;;;0.00;0.00;;;;;;;27.19;53.81;100230.03;4994817;28;20030;-73
2023/09/11 08:46:23;;;;;;;0.00;0.00;;;;;;;27.08;52.91;100240.31;4982747;28;20029;-72
2023/09/11 08:48:58;;;;;;;0.00;0.00;;;;;;;26.67;52.83;100234.59;5012875;28;20029;-72
2023/09/11 08:51:48;;;;;;;0.00;0.00;;;;;;;26.33;53.53;100242.91;5024360;28;20033;-73
2023/09/11 08:54:18;;;;;;;0.00;0.00;;;;;;;26.30;54.10;100239.69;5007931;28;20053;-72
2023/09/11 08:56:44;;;;;;;0.00;0.00;;;;;;;26.06;54.58;100235.31;5006216;28;20471;-73
2023/09/11 08:59:12;;;;;;;0.00;0.00;;;;;;;26.13;55.13;100229.81;4999859;28;20052;-73
2023/09/11 09:01:51;;;;;;;0.00;0.00;;;;;;;26.09;54.92;100228.16;4994403;28;20543;-73
2023/09/11 09:04:18;;;;;;;0.00;0.00;;;;;;;25.86;55.46;100220.56;5014108;28;20475;-73
2023/09/11 09:06:46;;;;;;;0.00;0.00;;;;;;;26.13;55.16;100229.00;5015618;28;20494;-72
2023/09/11 09:09:17;;;;;;;0.00;0.00;;;;;;;26.17;54.58;100229.06;4993450;28;20488;-71
2023/09/11 09:11:48;;;;;;;0.00;0.00;;;;;;;25.96;54.80;100205.94;5014705;28;20112;-73
2023/09/11 09:14:20;;;;;;;0.00;0.00;;;;;;;26.01;54.78;100237.66;5000753;28;20037;-73
2023/09/11 09:16:48;;;;;;;0.00;0.00;;;;;;;26.06;55.06;100223.31;5003273;28;20037;-71
2023/09/11 09:19:17;;;;;;;0.00;0.00;;;;;;;26.40;54.75;100240.22;5012706;28;20022;-73
2023/09/11 09:22:01;;;;;;;0.00;0.00;;;;;;;26.28;53.82;100242.06;4985809;28;20056;-74
2023/09/11 09:24:45;;;;;;;0.00;0.00;;;;;;;25.67;55.79;100235.47;5000508;28;20450;-74
2023/09/11 09:27:11;;;;;;;;;;;;;;;25.15;57.15;100240.47;5014594;28;20127;-74
2023/09/11 09:29:39;;;;;;;0.00;0.00;;;;;;;24.79;58.38;100245.34;5007928;28;19909;-72
2023/09/11 09:32:06;;;;;;;0.00;0.00;;;;;;;24.52;59.45;100242.34;4979872;28;21939;-73
2023/09/11 09:34:36;;;;;;;0.00;0.00;;;;;;;24.23;60.55;100238.91;5007877;28;20128;-73
2023/09/11 09:37:02;;;;;;;0.00;0.00;;;;;;;24.28;61.26;100250.97;4987731;28;20022;-73
2023/09/11 09:39:39;;;;;;;0.00;0.00;;;;;;;24.16;61.33;100241.53;5009549;28;21675;-72
2023/09/11 09:42:07;;;;;;;0.00;0.00;;;;;;;24.05;62.20;100241.28;4995475;28;20030;-71
2023/09/11 09:44:35;;;;;;;0.00;0.00;;;;;;;23.89;62.37;100234.91;5004315;28;20026;-71
2023/09/11 09:47:11;;;;;;;0.00;0.00;;;;;;;23.65;63.13;100241.44;5020441;28;20052;-73
2023/09/11 09:49:45;;;;;;;0.00;0.00;;;;;;;23.59;63.39;100238.09;5021712;28;20040;-74
2023/09/11 09:52:11;;;;;;;0.00;0.00;;;;;;;23.77;63.75;100237.75;5003471;28;20067;-73
2023/09/11 09:54:43;;;;;;;0.00;0.00;;;;;;;23.96;63.40;100234.25;4994002;28;20057;-72
2023/09/11 09:57:11;;;;;;;0.00;0.00;;;;;;;24.33;62.55;100242.31;4992749;28;20025;-72
2023/09/11 09:59:41;;;;;;;0.00;0.00;;;;;;;24.68;61.80;100235.94;5012383;28;20033;-73
2023/09/11 10:02:10;;;;;;;0.00;0.00;;;;;;;25.05;60.67;100227.09;5019600;28;20026;-73
2023/09/11 10:04:36;;;;;;;0.00;0.00;;;;;;;25.54;59.51;100229.25;5021374;28;20028;-73
2023/09/11 10:07:02;;;;;;;0.00;0.00;;;;;;;25.83;58.50;100235.34;4986397;28;20026;-73
2023/09/11 10:09:27;;;;;;;0.00;0.00;;;;;;;25.86;57.25;100234.56;5019970;28;20037;-72
2023/09/11 10:11:53;;;;;;;0.00;0.00;;;;;;;25.57;57.75;100230.50;5011930;28;20091;-72
2023/09/11 10:14:19;;;;;;;0.00;0.00;;;;;;;25.11;58.47;100220.00;4982657;28;20406;-71
2023/09/11 10:16:50;;;;;;;0.00;0.00;;;;;;;24.84;59.36;100217.09;5015987;28;20041;-73
2023/09/11 10:19:16;;;;;;;0.00;0.00;;;;;;;24.58;59.86;100215.72;5017145;28;20034;-73
2023/09/11 10:21:41;;;;;;;0.00;0.00;;;;;;;24.36;60.74;100219.25;4988617;28;20373;-72
2023/09/11 10:24:10;;;;;;;0.00;0.00;;;;;;;24.20;61.50;100217.28;4984800;28;20769;-73
2023/09/11 10:26:52;;;;;;;0.00;0.00;;;;;;;23.99;61.77;100205.59;5001756;28;20037;-72
2023/09/11 10:29:40;;;;;;;0.00;0.00;;;;;;;24.17;61.63;100214.41;5017389;28;20413;-72
2023/09/11 10:32:12;;;;;;;0.00;0.00;;;;;;;24.20;61.82;100217.28;5003629;28;20067;-74
2023/09/11 10:34:38;;;;;;;0.00;0.00;;;;;;;24.33;61.53;100219.97;5031439;28;20516;-73
2023/09/11 10:37:06;;;;;;;0.00;0.00;;;;;;;24.43;60.79;100202.63;5004356;28;20108;-73
2023/09/11 10:39:35;;;;;;;0.00;0.00;;;;;;;24.68;60.49;100217.16;5008661;28;20880;-75
2023/09/11 10:42:01;;;;;;;0.00;0.00;;;;;;;25.07;59.33;100219.94;5001559;28;20540;-73
2023/09/11 10:44:28;;;;;;;0.00;0.00;;;;;;;25.55;58.09;100210.44;5001855;28;20032;-73
2023/09/11 10:46:53;;;;;;;0.00;0.00;;;;;;;25.83;56.20;100201.72;5014290;28;20022;-72
2023/09/11 10:49:23;;;;;;;0.00;0.00;;;;;;;25.99;55.98;100206.34;5003202;28;20049;-73
2023/09/11 10:51:49;;;;;;;0.00;0.00;;;;;;;25.93;55.25;100208.66;5005189;28;20045;-72
2023/09/11 10:54:19;;;;;;;0.00;0.00;;;;;;;25.85;55.74;100204.16;5000287;28;20079;-72
2023/09/11 10:56:44;;;;;;;0.00;0.00;;;;;;;25.74;56.23;100203.97;4993948;28;20042;-71
2023/09/11 10:59:10;;;;;;;0.00;0.00;;;;;;;25.57;56.16;100203.28;4978097;28;20029;-74
2023/09/11 11:01:36;;;;;;;0.00;0.00;;;;;;;25.35;55.58;100195.69;5020561;28;20045;-72
2023/09/11 11:04:05;;;;;;;0.00;0.00;;;;;;;25.23;56.00;100194.69;5020009;28;20017;-72
2023/09/11 11:06:32;;;;;;;0.00;0.00;;;;;;;25.31;56.30;100195.63;4998372;28;20040;-72
2023/09/11 11:08:58;;;;;;;0.00;0.00;;;;;;;25.42;55.91;100196.63;5021202;28;20041;-73
2023/09/11 11:11:29;;;;;;;0.00;0.00;;;;;;;25.79;54.98;100189.66;5004800;28;20029;-74
2023/09/11 11:14:17;;;;;;;0.00;0.00;;;;;;;26.30;53.77;100189.25;4996895;28;20541;-72
2023/09/11 11:17:08;;;;;;;0.00;0.00;;;;;;;27.02;51.97;100191.34;4998368;28;20029;-72
2023/09/11 11:19:39;;;;;;;0.00;0.00;;;;;;;27.66;50.37;100189.19;5022098;28;20116;-72
2023/09/11 11:22:07;;;;;;;0.00;0.00;;;;;;;27.74;48.85;100183.63;5028509;28;20032;-73
2023/09/11 11:24:34;;;;;;;0.00;0.00;;;;;;;27.93;49.75;100190.97;5001936;28;20400;-73